createdAt,value
2022-08-22T00:01:33.307Z,19.64
2022-08-22T00:04:13.139Z,19.63
2022-08-22T00:06:56.663Z,19.63
2022-08-22T00:09:39.103Z,19.58
2022-08-22T00:12:22.568Z,19.60
2022-08-22T00:15:31.685Z,19.59
2022-08-22T00:18:12.198Z,19.59
2022-08-22T00:20:50.443Z,19.62
2022-08-22T00:23:28.963Z,19.64
2022-08-22T00:26:10.329Z,19.67
2022-08-22T00:28:48.094Z,19.67
2022-08-22T00:31:22.605Z,19.67
2022-08-22T00:34:02.200Z,19.66
2022-08-22T00:36:39.838Z,19.66
2022-08-22T00:39:16.135Z,19.67
2022-08-22T00:42:31.404Z,19.71
2022-08-22T00:45:27.416Z,19.77
2022-08-22T00:48:14.385Z,19.86
2022-08-22T00:51:12.166Z,19.93
2022-08-22T00:53:51.991Z,20.03
2022-08-22T00:57:03.922Z,20.08
2022-08-22T01:00:02.303Z,20.13
2022-08-22T01:02:53.069Z,20.11
2022-08-22T01:05:42.704Z,20.08
2022-08-22T01:08:41.074Z,20.09
2022-08-22T01:11:31.301Z,20.16
2022-08-22T01:14:15.762Z,20.18
2022-08-22T01:17:09.999Z,20.12
2022-08-22T01:20:11.742Z,20.05
2022-08-22T01:23:15.043Z,19.98
2022-08-22T01:26:14.732Z,20.00
2022-08-22T01:29:34.195Z,20.01
2022-08-22T01:32:56.906Z,20.00
2022-08-22T01:35:47.723Z,19.98
2022-08-22T01:38:53.458Z,19.99
2022-08-22T01:41:51.910Z,20.04
2022-08-22T01:44:39.856Z,20.11
2022-08-22T01:47:18.077Z,20.12
2022-08-22T01:49:55.242Z,20.11
2022-08-22T01:52:42.771Z,20.13
2022-08-22T01:55:25.902Z,20.14
2022-08-22T01:58:00.627Z,20.10
2022-08-22T02:01:00.922Z,20.06
2022-08-22T02:03:38.373Z,20.02
2022-08-22T02:06:18.502Z,20.04
2022-08-22T02:09:20.642Z,20.07
2022-08-22T02:11:57.019Z,20.04
2022-08-22T02:14:41.794Z,20.01
2022-08-22T02:17:23.458Z,20.02
2022-08-22T02:20:04.467Z,20.02
2022-08-22T02:22:44.812Z,20.05
2022-08-22T02:25:24.870Z,20.04
2022-08-22T02:28:08.186Z,20.03
2022-08-22T02:30:51.576Z,20.06
2022-08-22T02:33:34.341Z,20.07
2022-08-22T02:36:17.133Z,20.12
2022-08-22T02:38:59.653Z,20.15
2022-08-22T02:41:38.576Z,20.16
2022-08-22T02:44:23.723Z,20.19
2022-08-22T02:47:04.034Z,20.24
2022-08-22T02:49:45.386Z,20.16
2022-08-22T02:52:22.516Z,20.04
2022-08-22T02:55:02.111Z,19.92
2022-08-22T02:57:39.696Z,19.87
2022-08-22T03:00:31.629Z,19.81
2022-08-22T03:03:17.077Z,19.75
2022-08-22T03:06:03.870Z,19.74
2022-08-22T03:09:01.576Z,19.72
2022-08-22T03:11:42.133Z,19.70
2022-08-22T03:14:20.041Z,19.73
2022-08-22T03:17:08.287Z,19.77
2022-08-22T03:19:54.909Z,19.81
2022-08-22T03:22:38.756Z,19.84
2022-08-22T03:25:21.397Z,19.85
2022-08-22T03:28:00.668Z,19.85
2022-08-22T03:30:41.258Z,19.81
2022-08-22T03:33:21.362Z,19.81
2022-08-22T03:36:03.402Z,19.81
2022-08-22T03:38:53.280Z,19.86
2022-08-22T03:41:55.154Z,19.89
2022-08-22T03:44:57.077Z,19.92
2022-08-22T03:47:44.053Z,19.96
2022-08-22T03:50:54.577Z,19.96
2022-08-22T03:53:42.527Z,19.97
2022-08-22T03:56:45.520Z,19.98
2022-08-22T03:59:51.444Z,19.94
2022-08-22T04:02:44.144Z,19.89
2022-08-22T04:05:47.979Z,19.90
2022-08-22T04:08:52.927Z,19.97
2022-08-22T04:11:44.491Z,20.05
2022-08-22T04:14:44.199Z,20.05
2022-08-22T04:17:44.144Z,19.96
2022-08-22T04:20:50.462Z,19.97
2022-08-22T04:23:58.802Z,20.05
2022-08-22T04:26:41.637Z,20.09
2022-08-22T04:29:22.752Z,20.12
2022-08-22T04:32:04.255Z,20.16
2022-08-22T04:34:43.642Z,20.16
2022-08-22T04:37:24.804Z,20.18
2022-08-22T04:40:04.709Z,20.25
2022-08-22T04:42:41.383Z,20.36
2022-08-22T04:45:17.753Z,20.47
2022-08-22T04:47:56.577Z,20.52
2022-08-22T04:50:45.074Z,20.56
2022-08-22T04:53:42.203Z,20.62
2022-08-22T04:56:23.377Z,20.67
2022-08-22T04:58:59.217Z,20.68
2022-08-22T05:01:49.154Z,20.68
2022-08-22T05:04:27.485Z,20.68
2022-08-22T05:07:05.485Z,20.69
2022-08-22T05:09:42.783Z,20.68
2022-08-22T05:12:29.638Z,20.71
2022-08-22T05:15:09.742Z,20.69
2022-08-22T05:17:53.866Z,20.68
2022-08-22T05:20:39.351Z,20.69
2022-08-22T05:23:26.383Z,20.68
2022-08-22T05:26:05.193Z,20.71
2022-08-22T05:28:59.710Z,20.72
2022-08-22T05:31:35.788Z,20.73
2022-08-22T05:34:12.044Z,20.71
2022-08-22T05:36:51.402Z,20.71
2022-08-22T05:39:27.887Z,20.76
2022-08-22T05:42:02.975Z,20.84
2022-08-22T05:44:38.527Z,20.88
2022-08-22T05:47:22.664Z,20.83
2022-08-22T05:50:09.167Z,20.84
2022-08-22T05:52:55.480Z,20.92
2022-08-22T05:55:33.753Z,20.96
2022-08-22T05:58:26.079Z,20.99
2022-08-22T06:01:06.640Z,21.08
2022-08-22T06:03:46.556Z,21.23
2022-08-22T06:06:23.237Z,21.37
2022-08-22T06:09:02.169Z,21.48
2022-08-22T06:11:40.849Z,21.60
2022-08-22T06:14:46.325Z,21.74
2022-08-22T06:17:36.609Z,21.86
2022-08-22T06:20:23.814Z,21.96
2022-08-22T06:23:01.551Z,22.04
2022-08-22T06:25:38.711Z,22.14
2022-08-22T06:28:24.398Z,22.24
2022-08-22T06:30:59.228Z,22.42
2022-08-22T06:33:33.974Z,22.66
2022-08-22T06:36:28.010Z,22.85
2022-08-22T06:39:12.417Z,23.06
2022-08-22T06:41:50.542Z,23.23
2022-08-22T06:44:25.772Z,23.37
2022-08-22T06:47:01.343Z,23.42
2022-08-22T06:49:36.381Z,23.43
2022-08-22T06:52:12.725Z,23.42
2022-08-22T06:54:48.735Z,23.45
2022-08-22T06:57:33.483Z,23.49
2022-08-22T07:00:13.398Z,23.49
2022-08-22T07:02:52.437Z,23.49
2022-08-22T07:05:28.122Z,23.47
2022-08-22T07:08:00.239Z,23.47
2022-08-22T07:10:32.274Z,23.48
2022-08-22T07:13:08.335Z,23.43
2022-08-22T07:15:44.537Z,23.40
2022-08-22T07:18:24.978Z,23.39
2022-08-22T07:20:59.568Z,23.40
2022-08-22T07:23:37.201Z,23.46
2022-08-22T07:26:21.307Z,23.60
2022-08-22T07:28:57.923Z,23.76
2022-08-22T07:31:34.724Z,23.87
2022-08-22T07:34:27.216Z,23.92
2022-08-22T07:37:05.723Z,23.97
2022-08-22T07:39:53.701Z,24.07
2022-08-22T07:42:38.584Z,24.17
2022-08-22T07:45:16.005Z,24.27
2022-08-22T07:48:01.903Z,24.35
2022-08-22T07:50:37.527Z,24.39
2022-08-22T07:53:23.552Z,24.44
2022-08-22T07:55:57.619Z,24.57
2022-08-22T07:58:33.960Z,24.70
2022-08-22T08:01:08.075Z,24.82
2022-08-22T08:03:40.653Z,24.96
2022-08-22T08:06:13.352Z,25.04
2022-08-22T08:08:47.067Z,25.06
2022-08-22T08:11:23.532Z,25.06
2022-08-22T08:14:02.994Z,24.98
2022-08-22T08:16:42.046Z,24.90
2022-08-22T08:19:16.930Z,24.83
2022-08-22T08:21:53.665Z,24.76
2022-08-22T08:24:37.076Z,24.68
2022-08-22T08:27:36.117Z,24.70
2022-08-22T08:30:21.342Z,24.81
2022-08-22T08:33:24.804Z,25.03
2022-08-22T08:36:02.265Z,25.30
2022-08-22T08:38:43.670Z,25.43
2022-08-22T08:41:46.446Z,25.64
2022-08-22T08:44:35.863Z,25.88
2022-08-22T08:47:51.372Z,26.19
2022-08-22T08:50:47.259Z,26.44
2022-08-22T08:53:42.806Z,26.51
2022-08-22T08:56:25.342Z,26.51
2022-08-22T08:59:09.959Z,26.57
2022-08-22T09:02:13.705Z,26.65
2022-08-22T09:05:45.192Z,26.72
2022-08-22T09:08:37.157Z,26.88
2022-08-22T09:11:50.593Z,27.01
2022-08-22T09:15:01.333Z,26.92
2022-08-22T09:17:51.987Z,26.85
2022-08-22T09:20:47.755Z,26.88
2022-08-22T09:24:07.014Z,27.03
2022-08-22T09:26:50.881Z,27.30
2022-08-22T09:29:54.830Z,27.43
2022-08-22T09:32:45.331Z,27.57
2022-08-22T09:35:25.956Z,27.59
2022-08-22T09:38:22.675Z,27.59
2022-08-22T09:41:11.154Z,27.54
2022-08-22T09:43:50.719Z,27.46
2022-08-22T09:46:44.226Z,27.48
2022-08-22T09:49:33.498Z,27.44
2022-08-22T09:52:48.409Z,27.45
2022-08-22T09:55:46.130Z,27.48
2022-08-22T09:58:33.751Z,27.49
2022-08-22T10:01:23.665Z,27.50
2022-08-22T10:04:46.010Z,27.61
2022-08-22T10:07:43.575Z,27.75
2022-08-22T10:10:41.155Z,27.78
2022-08-22T10:13:48.012Z,27.84
2022-08-22T10:16:53.058Z,27.83
2022-08-22T10:19:32.059Z,27.78
2022-08-22T10:22:21.952Z,27.83
2022-08-22T10:25:05.910Z,27.94
2022-08-22T10:27:57.846Z,28.08
2022-08-22T10:30:35.809Z,28.25
2022-08-22T10:33:15.583Z,28.38
2022-08-22T10:36:04.891Z,28.42
2022-08-22T10:38:46.112Z,28.47
2022-08-22T10:41:30.178Z,28.56
2022-08-22T10:44:10.963Z,28.61
2022-08-22T10:46:48.403Z,28.67
2022-08-22T10:49:28.274Z,28.63
2022-08-22T10:52:15.788Z,28.66
2022-08-22T10:54:52.672Z,28.70
2022-08-22T10:57:40.180Z,28.67
2022-08-22T11:00:22.647Z,28.75
2022-08-22T11:03:03.426Z,28.87
2022-08-22T11:05:44.364Z,28.95
2022-08-22T11:08:47.539Z,28.91
2022-08-22T11:11:32.625Z,28.99
2022-08-22T11:14:26.035Z,29.12
2022-08-22T11:17:31.052Z,29.29
2022-08-22T11:20:21.276Z,29.50
2022-08-22T11:23:12.274Z,29.67
2022-08-22T11:26:01.652Z,29.76
2022-08-22T11:29:07.810Z,29.87
2022-08-22T11:32:00.440Z,30.04
2022-08-22T11:34:49.384Z,30.06
2022-08-22T11:37:47.887Z,30.15
2022-08-22T11:40:37.987Z,30.28
2022-08-22T11:43:28.418Z,30.36
2022-08-22T11:46:15.748Z,30.51
2022-08-22T11:49:13.439Z,30.60
2022-08-22T11:52:00.346Z,30.72
2022-08-22T11:54:51.782Z,30.96
2022-08-22T11:57:34.212Z,31.17
2022-08-22T12:00:24.811Z,31.42
2022-08-22T12:03:17.300Z,31.62
2022-08-22T12:05:53.186Z,31.76
2022-08-22T12:09:04.514Z,31.87
2022-08-22T12:11:45.313Z,32.14
2022-08-22T12:14:27.579Z,32.35
2022-08-22T12:17:33.532Z,32.50
2022-08-22T12:20:22.179Z,32.72
2022-08-22T12:23:17.364Z,32.87
2022-08-22T12:26:10.743Z,32.95
2022-08-22T12:28:56.734Z,33.11
2022-08-22T12:31:37.874Z,33.13
2022-08-22T12:34:22.475Z,33.04
2022-08-22T12:37:15.751Z,32.95
2022-08-22T12:40:16.103Z,32.90
2022-08-22T12:43:02.688Z,32.80
2022-08-22T12:45:50.711Z,32.59
2022-08-22T12:48:38.972Z,32.36
2022-08-22T12:51:26.337Z,32.16
2022-08-22T12:54:44.910Z,31.91
2022-08-22T12:57:27.428Z,31.63
2022-08-22T13:00:08.752Z,31.42
2022-08-22T13:02:45.009Z,31.43
2022-08-22T13:05:24.768Z,31.46
2022-08-22T13:08:17.387Z,31.51
2022-08-22T13:10:52.279Z,31.39
2022-08-22T13:13:37.272Z,31.27
2022-08-22T13:16:15.620Z,31.03
2022-08-22T13:18:54.425Z,30.81
2022-08-22T13:21:34.565Z,30.59
2022-08-22T13:24:16.824Z,30.35
2022-08-22T13:26:59.975Z,30.18
2022-08-22T13:29:42.729Z,30.08
2022-08-22T13:32:29.763Z,30.13
2022-08-22T13:35:32.110Z,30.37
2022-08-22T13:38:12.106Z,30.55
2022-08-22T13:40:50.161Z,30.80
2022-08-22T13:43:25.011Z,31.15
2022-08-22T13:46:02.022Z,31.41
2022-08-22T13:49:01.044Z,31.42
2022-08-22T13:51:46.649Z,31.49
2022-08-22T13:54:39.442Z,31.65
2022-08-22T13:57:26.973Z,31.66
2022-08-22T14:00:29.577Z,31.54
2022-08-22T14:03:26.410Z,31.51
2022-08-22T14:06:35.550Z,31.55
2022-08-22T14:09:32.040Z,31.70
2022-08-22T14:12:13.748Z,31.88
2022-08-22T14:14:56.056Z,32.04
2022-08-22T14:17:32.921Z,32.22
2022-08-22T14:20:13.593Z,32.37
2022-08-22T14:23:30.153Z,32.58
2022-08-22T14:26:07.554Z,32.50
2022-08-22T14:28:56.745Z,32.27
2022-08-22T14:31:32.037Z,31.98
2022-08-22T14:34:10.702Z,31.70
2022-08-22T14:36:50.080Z,31.48
2022-08-22T14:39:28.675Z,31.38
2022-08-22T14:42:13.075Z,31.22
2022-08-22T14:45:01.572Z,31.01
2022-08-22T14:47:55.563Z,30.93
2022-08-22T14:50:53.036Z,30.94
2022-08-22T14:53:29.489Z,30.96
2022-08-22T14:56:09.083Z,30.98
2022-08-22T14:58:53.247Z,31.04
2022-08-22T15:01:29.906Z,31.19
2022-08-22T15:04:22.742Z,31.24
2022-08-22T15:06:57.810Z,31.16
2022-08-22T15:09:35.778Z,31.16
2022-08-22T15:12:10.476Z,31.22
2022-08-22T15:14:52.700Z,31.18
2022-08-22T15:17:45.201Z,31.08
2022-08-22T15:20:35.240Z,31.03
2022-08-22T15:23:17.487Z,31.04
2022-08-22T15:26:06.616Z,31.17
2022-08-22T15:28:53.097Z,31.22
2022-08-22T15:31:39.694Z,31.17
2022-08-22T15:34:32.744Z,30.98
2022-08-22T15:37:32.638Z,30.73
2022-08-22T15:40:40.907Z,30.45
2022-08-22T15:43:34.843Z,30.19
2022-08-22T15:46:30.470Z,29.98
2022-08-22T15:49:06.894Z,29.82
2022-08-22T15:51:52.694Z,29.70
2022-08-22T15:54:27.323Z,29.58
2022-08-22T15:57:19.176Z,29.41
2022-08-22T15:59:57.395Z,29.22
2022-08-22T16:03:01.837Z,29.02
2022-08-22T16:05:54.534Z,28.81
2022-08-22T16:08:54.307Z,28.68
2022-08-22T16:11:33.654Z,28.59
2022-08-22T16:14:22.531Z,28.46
2022-08-22T16:17:07.119Z,28.33
2022-08-22T16:19:39.851Z,28.18
2022-08-22T16:22:16.515Z,28.07
2022-08-22T16:25:10.397Z,27.96
2022-08-22T16:27:59.820Z,27.87
2022-08-22T16:30:39.464Z,27.79
2022-08-22T16:33:17.811Z,27.72
2022-08-22T16:36:24.537Z,27.67
2022-08-22T16:38:59.905Z,27.62
2022-08-22T16:41:44.653Z,27.55
2022-08-22T16:44:43.996Z,27.49
2022-08-22T16:47:19.016Z,27.42
2022-08-22T16:50:05.157Z,27.36
2022-08-22T16:53:10.623Z,27.28
2022-08-22T16:56:03.383Z,27.16
2022-08-22T16:59:23.095Z,27.05
2022-08-22T17:02:08.941Z,26.91
2022-08-22T17:04:54.700Z,26.77
2022-08-22T17:07:44.166Z,26.64
2022-08-22T17:10:30.825Z,26.53
2022-08-22T17:13:15.604Z,26.42
2022-08-22T17:16:00.213Z,26.31
2022-08-22T17:18:44.243Z,26.21
2022-08-22T17:21:26.139Z,26.11
2022-08-22T17:24:07.482Z,26.02
2022-08-22T17:26:50.964Z,25.92
2022-08-22T17:29:43.656Z,25.80
2022-08-22T17:32:25.347Z,25.69
2022-08-22T17:35:14.833Z,25.57
2022-08-22T17:38:02.359Z,25.43
2022-08-22T17:40:49.563Z,25.31
2022-08-22T17:43:48.510Z,25.20
2022-08-22T17:46:35.196Z,25.12
2022-08-22T17:49:20.875Z,25.05
2022-08-22T17:52:18.398Z,25.00
2022-08-22T17:54:55.625Z,24.96
2022-08-22T17:57:33.317Z,24.92
2022-08-22T18:00:11.566Z,24.87
2022-08-22T18:02:51.140Z,24.82
2022-08-22T18:05:27.816Z,24.76
2022-08-22T18:08:08.322Z,24.71
2022-08-22T18:10:49.267Z,24.60
2022-08-22T18:13:50.711Z,24.34
2022-08-22T18:16:29.377Z,23.99
2022-08-22T18:19:08.352Z,23.69
2022-08-22T18:21:54.617Z,23.36
2022-08-22T18:24:33.659Z,23.09
2022-08-22T18:27:34.066Z,22.87
2022-08-22T18:30:20.561Z,22.56
2022-08-22T18:33:01.814Z,22.31
2022-08-22T18:35:43.884Z,22.11
2022-08-22T18:38:30.511Z,22.00
2022-08-22T18:41:13.268Z,21.87
2022-08-22T18:43:59.243Z,21.74
2022-08-22T18:46:44.887Z,21.68
2022-08-22T18:49:43.761Z,21.63
2022-08-22T18:52:37.482Z,21.58
2022-08-22T18:55:46.261Z,21.55
2022-08-22T18:59:02.905Z,21.53
2022-08-22T19:02:13.753Z,21.52
2022-08-22T19:05:35.145Z,21.50
2022-08-22T19:08:53.590Z,21.46
2022-08-22T19:12:01.735Z,21.39
2022-08-22T19:15:11.775Z,21.37
2022-08-22T19:18:26.934Z,21.40
2022-08-22T19:21:44.570Z,21.43
2022-08-22T19:25:16.312Z,21.47
2022-08-22T19:28:35.950Z,21.47
2022-08-22T19:31:44.391Z,21.47
2022-08-22T19:34:41.906Z,21.44
2022-08-22T19:37:54.028Z,21.40
2022-08-22T19:40:55.624Z,21.34
2022-08-22T19:43:50.519Z,21.31
2022-08-22T19:46:44.328Z,21.26
2022-08-22T19:49:40.512Z,21.25
2022-08-22T19:52:46.596Z,21.17
2022-08-22T19:55:57.411Z,21.07
2022-08-22T19:59:00.909Z,21.03
2022-08-22T20:02:01.733Z,21.01
2022-08-22T20:05:09.526Z,20.98
2022-08-22T20:08:08.470Z,20.93
2022-08-22T20:11:13.484Z,20.87
2022-08-22T20:14:26.567Z,20.83
2022-08-22T20:17:44.543Z,20.82
2022-08-22T20:20:38.180Z,20.84
2022-08-22T20:23:33.968Z,20.90
2022-08-22T20:26:26.277Z,20.94
2022-08-22T20:29:20.285Z,20.98
2022-08-22T20:32:15.927Z,20.99
2022-08-22T20:35:12.680Z,21.02
2022-08-22T20:38:13.152Z,21.06
2022-08-22T20:41:15.191Z,21.07
2022-08-22T20:44:13.487Z,21.09
2022-08-22T20:47:10.176Z,21.08
2022-08-22T20:50:09.682Z,21.07
2022-08-22T20:53:18.414Z,21.09
2022-08-22T20:56:12.059Z,21.16
2022-08-22T20:59:23.029Z,21.25
2022-08-22T21:02:20.413Z,21.34
2022-08-22T21:05:24.078Z,21.40
2022-08-22T21:08:20.189Z,21.46
2022-08-22T21:11:38.271Z,21.52
2022-08-22T21:14:37.893Z,21.58
2022-08-22T21:17:35.627Z,21.54
2022-08-22T21:20:35.846Z,21.54
2022-08-22T21:23:28.013Z,21.59
2022-08-22T21:26:26.184Z,21.63
2022-08-22T21:29:31.701Z,21.68
2022-08-22T21:32:32.984Z,21.71
2022-08-22T21:35:29.878Z,21.70
2022-08-22T21:38:22.721Z,21.73
2022-08-22T21:41:19.343Z,21.72
2022-08-22T21:44:33.411Z,21.69
2022-08-22T21:47:31.498Z,21.64
2022-08-22T21:50:38.299Z,21.56
2022-08-22T21:53:31.355Z,21.45
2022-08-22T21:56:17.877Z,21.36
2022-08-22T21:59:51.142Z,21.33
2022-08-22T22:02:42.059Z,21.28
2022-08-22T22:05:34.957Z,21.26
2022-08-22T22:08:31.464Z,21.20
2022-08-22T22:11:24.105Z,21.11
2022-08-22T22:14:16.274Z,21.07
2022-08-22T22:17:11.365Z,21.04
2022-08-22T22:20:03.857Z,21.08
2022-08-22T22:22:56.104Z,21.11
2022-08-22T22:25:49.175Z,21.11
2022-08-22T22:28:43.885Z,21.13
2022-08-22T22:31:35.910Z,21.18
2022-08-22T22:34:28.114Z,21.23
2022-08-22T22:37:20.187Z,21.23
2022-08-22T22:40:14.100Z,21.24
2022-08-22T22:43:06.269Z,21.28
2022-08-22T22:45:58.740Z,21.33
2022-08-22T22:48:50.782Z,21.34
2022-08-22T22:51:43.789Z,21.34
2022-08-22T22:54:35.788Z,21.25
2022-08-22T22:57:28.206Z,21.10
2022-08-22T23:00:21.165Z,20.95
2022-08-22T23:03:17.668Z,20.86
2022-08-22T23:06:13.773Z,20.83
2022-08-22T23:09:05.988Z,20.78
2022-08-22T23:11:57.977Z,20.75
2022-08-22T23:14:50.346Z,20.71
2022-08-22T23:17:44.321Z,20.68
2022-08-22T23:20:36.329Z,20.68
2022-08-22T23:23:28.420Z,20.71
2022-08-22T23:26:20.463Z,20.77
2022-08-22T23:29:12.815Z,20.83
2022-08-22T23:31:50.265Z,20.86
2022-08-22T23:34:46.008Z,20.90
2022-08-22T23:37:38.116Z,20.91
2022-08-22T23:40:30.244Z,20.93
2022-08-22T23:43:22.280Z,20.92
2022-08-22T23:46:16.294Z,20.89
2022-08-22T23:49:00.533Z,20.78
2022-08-22T23:51:53.392Z,20.62
2022-08-22T23:54:45.458Z,20.52
2022-08-22T23:57:40.541Z,20.44
